sensor_id;sensor_type;location;lat;lon;timestamp;P1;durP1;ratioP1;P2;durP2;ratioP2
5819;SDS011;2936;47.348;9.640;2023-06-22T00:00:49;17.73;;;7.20;;
5819;SDS011;2936;47.348;9.640;2023-06-22T00:03:17;13.37;;;7.30;;
5819;SDS011;2936;47.348;9.640;2023-06-22T00:05:45;11.40;;;7.20;;
5819;SDS011;2936;47.348;9.640;2023-06-22T00:08:12;10.77;;;7.77;;
5819;SDS011;2936;47.348;9.640;2023-06-22T00:10:40;13.80;;;7.57;;
5819;SDS011;2936;47.348;9.640;2023-06-22T00:13:08;11.23;;;7.23;;
5819;SDS011;2936;47.348;9.640;2023-06-22T00:15:37;14.83;;;7.80;;
5819;SDS011;2936;47.348;9.640;2023-06-22T00:18:04;14.70;;;7.73;;
5819;SDS011;2936;47.348;9.640;2023-06-22T00:20:32;11.00;;;6.90;;
5819;SDS011;2936;47.348;9.640;2023-06-22T00:23:02;21.90;;;7.93;;
5819;SDS011;2936;47.348;9.640;2023-06-22T00:25:33;14.17;;;7.57;;
5819;SDS011;2936;47.348;9.640;2023-06-22T00:28:00;11.10;;;7.23;;
5819;SDS011;2936;47.348;9.640;2023-06-22T00:30:27;10.03;;;6.73;;
5819;SDS011;2936;47.348;9.640;2023-06-22T00:32:56;12.27;;;6.57;;
5819;SDS011;2936;47.348;9.640;2023-06-22T00:35:23;10.83;;;6.83;;
5819;SDS011;2936;47.348;9.640;2023-06-22T00:37:54;11.60;;;7.53;;
5819;SDS011;2936;47.348;9.640;2023-06-22T00:40:26;13.80;;;8.17;;
5819;SDS011;2936;47.348;9.640;2023-06-22T00:42:53;12.97;;;7.07;;
5819;SDS011;2936;47.348;9.640;2023-06-22T00:45:21;13.87;;;7.13;;
5819;SDS011;2936;47.348;9.640;2023-06-22T00:47:49;14.90;;;7.70;;
5819;SDS011;2936;47.348;9.640;2023-06-22T00:50:19;13.20;;;8.63;;
5819;SDS011;2936;47.348;9.640;2023-06-22T00:52:48;11.93;;;7.67;;
5819;SDS011;2936;47.348;9.640;2023-06-22T00:55:15;15.93;;;7.70;;
5819;SDS011;2936;47.348;9.640;2023-06-22T00:57:43;16.93;;;7.40;;
5819;SDS011;2936;47.348;9.640;2023-06-22T01:00:11;15.47;;;7.77;;
5819;SDS011;2936;47.348;9.640;2023-06-22T01:02:43;11.50;;;8.00;;
5819;SDS011;2936;47.348;9.640;2023-06-22T01:05:12;10.83;;;7.43;;
5819;SDS011;2936;47.348;9.640;2023-06-22T01:07:42;13.00;;;8.30;;
5819;SDS011;2936;47.348;9.640;2023-06-22T01:10:14;14.87;;;8.00;;
5819;SDS011;2936;47.348;9.640;2023-06-22T01:12:44;12.50;;;8.57;;
5819;SDS011;2936;47.348;9.640;2023-06-22T01:15:13;20.77;;;8.50;;
5819;SDS011;2936;47.348;9.640;2023-06-22T01:17:42;27.87;;;9.53;;
5819;SDS011;2936;47.348;9.640;2023-06-22T01:20:11;15.07;;;8.70;;
5819;SDS011;2936;47.348;9.640;2023-06-22T01:22:43;16.57;;;8.43;;
5819;SDS011;2936;47.348;9.640;2023-06-22T01:25:13;14.07;;;8.20;;
5819;SDS011;2936;47.348;9.640;2023-06-22T01:27:47;13.23;;;8.80;;
5819;SDS011;2936;47.348;9.640;2023-06-22T01:30:16;12.20;;;8.63;;
5819;SDS011;2936;47.348;9.640;2023-06-22T01:32:44;12.00;;;8.17;;
5819;SDS011;2936;47.348;9.640;2023-06-22T01:35:11;17.07;;;9.80;;
5819;SDS011;2936;47.348;9.640;2023-06-22T01:37:39;17.53;;;10.07;;
5819;SDS011;2936;47.348;9.640;2023-06-22T01:40:06;13.63;;;8.50;;
5819;SDS011;2936;47.348;9.640;2023-06-22T01:42:35;14.90;;;8.93;;
5819;SDS011;2936;47.348;9.640;2023-06-22T01:45:03;22.27;;;9.80;;
5819;SDS011;2936;47.348;9.640;2023-06-22T01:47:33;11.20;;;8.70;;
5819;SDS011;2936;47.348;9.640;2023-06-22T01:50:00;14.33;;;9.30;;
5819;SDS011;2936;47.348;9.640;2023-06-22T01:52:28;17.10;;;10.07;;
5819;SDS011;2936;47.348;9.640;2023-06-22T01:54:55;16.20;;;9.50;;
5819;SDS011;2936;47.348;9.640;2023-06-22T01:57:24;14.50;;;9.40;;
5819;SDS011;2936;47.348;9.640;2023-06-22T01:59:53;11.37;;;8.70;;
5819;SDS011;2936;47.348;9.640;2023-06-22T02:02:22;16.80;;;9.63;;
5819;SDS011;2936;47.348;9.640;2023-06-22T02:04:56;14.70;;;9.40;;
5819;SDS011;2936;47.348;9.640;2023-06-22T02:07:25;21.97;;;8.70;;
5819;SDS011;2936;47.348;9.640;2023-06-22T02:09:54;11.23;;;8.67;;
5819;SDS011;2936;47.348;9.640;2023-06-22T02:12:22;14.17;;;9.10;;
5819;SDS011;2936;47.348;9.640;2023-06-22T02:14:50;15.63;;;7.37;;
5819;SDS011;2936;47.348;9.640;2023-06-22T02:17:18;10.03;;;7.70;;
5819;SDS011;2936;47.348;9.640;2023-06-22T02:19:46;20.00;;;10.20;;
5819;SDS011;2936;47.348;9.640;2023-06-22T02:22:14;12.37;;;7.97;;
5819;SDS011;2936;47.348;9.640;2023-06-22T02:24:42;14.60;;;7.40;;
5819;SDS011;2936;47.348;9.640;2023-06-22T02:27:09;14.07;;;7.90;;
5819;SDS011;2936;47.348;9.640;2023-06-22T02:29:37;14.90;;;8.13;;
5819;SDS011;2936;47.348;9.640;2023-06-22T02:32:05;12.33;;;7.33;;
5819;SDS011;2936;47.348;9.640;2023-06-22T02:34:32;11.60;;;7.87;;
5819;SDS011;2936;47.348;9.640;2023-06-22T02:36:59;22.50;;;9.30;;
5819;SDS011;2936;47.348;9.640;2023-06-22T02:39:29;11.90;;;7.97;;
5819;SDS011;2936;47.348;9.640;2023-06-22T02:41:56;13.60;;;8.20;;
5819;SDS011;2936;47.348;9.640;2023-06-22T02:44:23;20.90;;;8.80;;
5819;SDS011;2936;47.348;9.640;2023-06-22T02:46:51;16.17;;;8.10;;
5819;SDS011;2936;47.348;9.640;2023-06-22T02:49:19;17.40;;;8.30;;
5819;SDS011;2936;47.348;9.640;2023-06-22T02:51:47;14.53;;;8.50;;
5819;SDS011;2936;47.348;9.640;2023-06-22T02:54:14;22.83;;;8.60;;
5819;SDS011;2936;47.348;9.640;2023-06-22T02:56:44;17.67;;;8.97;;
5819;SDS011;2936;47.348;9.640;2023-06-22T02:59:11;13.87;;;8.80;;
5819;SDS011;2936;47.348;9.640;2023-06-22T03:01:40;18.00;;;8.57;;
5819;SDS011;2936;47.348;9.640;2023-06-22T03:04:07;17.63;;;8.60;;
5819;SDS011;2936;47.348;9.640;2023-06-22T03:06:35;26.40;;;9.50;;
5819;SDS011;2936;47.348;9.640;2023-06-22T03:09:03;13.27;;;9.20;;
5819;SDS011;2936;47.348;9.640;2023-06-22T03:11:30;14.57;;;8.93;;
5819;SDS011;2936;47.348;9.640;2023-06-22T03:13:59;19.57;;;9.80;;
5819;SDS011;2936;47.348;9.640;2023-06-22T03:16:27;19.27;;;8.47;;
5819;SDS011;2936;47.348;9.640;2023-06-22T03:18:54;11.23;;;8.60;;
5819;SDS011;2936;47.348;9.640;2023-06-22T03:21:22;14.70;;;9.07;;
5819;SDS011;2936;47.348;9.640;2023-06-22T03:23:49;23.17;;;9.70;;
5819;SDS011;2936;47.348;9.640;2023-06-22T03:26:17;16.47;;;8.90;;
5819;SDS011;2936;47.348;9.640;2023-06-22T03:28:44;14.33;;;8.70;;
5819;SDS011;2936;47.348;9.640;2023-06-22T03:31:13;20.50;;;10.87;;
5819;SDS011;2936;47.348;9.640;2023-06-22T03:33:40;18.67;;;8.97;;
5819;SDS011;2936;47.348;9.640;2023-06-22T03:36:08;15.33;;;8.53;;
5819;SDS011;2936;47.348;9.640;2023-06-22T03:38:35;24.10;;;9.27;;
5819;SDS011;2936;47.348;9.640;2023-06-22T03:41:03;15.50;;;8.73;;
5819;SDS011;2936;47.348;9.640;2023-06-22T03:43:30;21.10;;;9.50;;
5819;SDS011;2936;47.348;9.640;2023-06-22T03:45:57;17.80;;;10.70;;
5819;SDS011;2936;47.348;9.640;2023-06-22T03:48:26;14.43;;;8.90;;
5819;SDS011;2936;47.348;9.640;2023-06-22T03:50:53;13.37;;;8.60;;
5819;SDS011;2936;47.348;9.640;2023-06-22T03:53:21;27.73;;;10.43;;
5819;SDS011;2936;47.348;9.640;2023-06-22T03:55:48;20.00;;;9.43;;
5819;SDS011;2936;47.348;9.640;2023-06-22T03:58:16;16.83;;;9.20;;
5819;SDS011;2936;47.348;9.640;2023-06-22T04:00:44;17.10;;;9.40;;
5819;SDS011;2936;47.348;9.640;2023-06-22T04:06:17;14.70;;;9.53;;
5819;SDS011;2936;47.348;9.640;2023-06-22T04:08:45;15.53;;;9.00;;
5819;SDS011;2936;47.348;9.640;2023-06-22T04:11:16;16.60;;;9.83;;
5819;SDS011;2936;47.348;9.640;2023-06-22T04:13:44;17.40;;;9.73;;
5819;SDS011;2936;47.348;9.640;2023-06-22T04:16:11;10.30;;;8.00;;
5819;SDS011;2936;47.348;9.640;2023-06-22T04:18:38;18.20;;;9.90;;
5819;SDS011;2936;47.348;9.640;2023-06-22T04:21:07;21.90;;;9.50;;
5819;SDS011;2936;47.348;9.640;2023-06-22T04:23:35;19.90;;;8.80;;
5819;SDS011;2936;47.348;9.640;2023-06-22T04:26:03;18.40;;;9.50;;
5819;SDS011;2936;47.348;9.640;2023-06-22T04:28:30;21.47;;;10.07;;
5819;SDS011;2936;47.348;9.640;2023-06-22T04:31:00;14.57;;;8.93;;
5819;SDS011;2936;47.348;9.640;2023-06-22T04:33:27;13.60;;;8.90;;
5819;SDS011;2936;47.348;9.640;2023-06-22T04:35:55;23.43;;;10.30;;
5819;SDS011;2936;47.348;9.640;2023-06-22T04:38:23;27.13;;;10.37;;
5819;SDS011;2936;47.348;9.640;2023-06-22T04:40:52;14.73;;;9.00;;
5819;SDS011;2936;47.348;9.640;2023-06-22T04:43:31;17.77;;;8.83;;
5819;SDS011;2936;47.348;9.640;2023-06-22T04:45:58;15.27;;;10.10;;
5819;SDS011;2936;47.348;9.640;2023-06-22T04:48:28;14.20;;;8.63;;
5819;SDS011;2936;47.348;9.640;2023-06-22T04:50:57;16.30;;;9.63;;
5819;SDS011;2936;47.348;9.640;2023-06-22T04:53:28;19.63;;;9.90;;
5819;SDS011;2936;47.348;9.640;2023-06-22T04:55:56;15.07;;;8.73;;
5819;SDS011;2936;47.348;9.640;2023-06-22T04:58:24;19.00;;;8.73;;
5819;SDS011;2936;47.348;9.640;2023-06-22T05:00:53;38.13;;;10.30;;
5819;SDS011;2936;47.348;9.640;2023-06-22T05:03:22;18.53;;;9.20;;
5819;SDS011;2936;47.348;9.640;2023-06-22T05:05:50;23.03;;;9.03;;
5819;SDS011;2936;47.348;9.640;2023-06-22T05:08:18;20.40;;;10.50;;
5819;SDS011;2936;47.348;9.640;2023-06-22T05:10:46;15.37;;;9.80;;
5819;SDS011;2936;47.348;9.640;2023-06-22T05:13:15;24.53;;;10.20;;
5819;SDS011;2936;47.348;9.640;2023-06-22T05:15:43;22.33;;;9.60;;
5819;SDS011;2936;47.348;9.640;2023-06-22T05:18:12;14.27;;;9.83;;
5819;SDS011;2936;47.348;9.640;2023-06-22T05:20:40;15.77;;;9.50;;
5819;SDS011;2936;47.348;9.640;2023-06-22T05:23:07;23.27;;;10.50;;
5819;SDS011;2936;47.348;9.640;2023-06-22T05:25:34;18.43;;;9.67;;
5819;SDS011;2936;47.348;9.640;2023-06-22T05:28:03;16.27;;;10.10;;
5819;SDS011;2936;47.348;9.640;2023-06-22T05:30:38;21.13;;;10.77;;
5819;SDS011;2936;47.348;9.640;2023-06-22T05:33:05;19.40;;;11.70;;
5819;SDS011;2936;47.348;9.640;2023-06-22T05:35:33;22.07;;;9.77;;
5819;SDS011;2936;47.348;9.640;2023-06-22T05:38:00;22.60;;;11.20;;
5819;SDS011;2936;47.348;9.640;2023-06-22T05:40:27;20.00;;;10.43;;
5819;SDS011;2936;47.348;9.640;2023-06-22T05:42:54;22.53;;;11.07;;
5819;SDS011;2936;47.348;9.640;2023-06-22T05:45:22;23.00;;;11.17;;
5819;SDS011;2936;47.348;9.640;2023-06-22T05:47:51;20.23;;;10.60;;
5819;SDS011;2936;47.348;9.640;2023-06-22T05:50:18;25.43;;;10.83;;
5819;SDS011;2936;47.348;9.640;2023-06-22T05:52:45;21.20;;;10.70;;
5819;SDS011;2936;47.348;9.640;2023-06-22T05:55:13;18.13;;;10.37;;
5819;SDS011;2936;47.348;9.640;2023-06-22T05:57:40;17.00;;;10.37;;
5819;SDS011;2936;47.348;9.640;2023-06-22T06:00:08;13.83;;;10.17;;
5819;SDS011;2936;47.348;9.640;2023-06-22T06:02:37;16.33;;;10.07;;
5819;SDS011;2936;47.348;9.640;2023-06-22T06:05:10;14.53;;;9.80;;
5819;SDS011;2936;47.348;9.640;2023-06-22T06:07:39;17.60;;;9.73;;
5819;SDS011;2936;47.348;9.640;2023-06-22T06:10:06;14.33;;;9.07;;
5819;SDS011;2936;47.348;9.640;2023-06-22T06:12:34;21.67;;;10.70;;
5819;SDS011;2936;47.348;9.640;2023-06-22T06:15:01;21.47;;;10.93;;
5819;SDS011;2936;47.348;9.640;2023-06-22T06:17:29;22.73;;;10.43;;
5819;SDS011;2936;47.348;9.640;2023-06-22T06:19:58;21.70;;;11.30;;
5819;SDS011;2936;47.348;9.640;2023-06-22T06:22:27;20.90;;;10.37;;
5819;SDS011;2936;47.348;9.640;2023-06-22T06:24:54;19.93;;;11.07;;
5819;SDS011;2936;47.348;9.640;2023-06-22T06:27:22;34.43;;;11.30;;
5819;SDS011;2936;47.348;9.640;2023-06-22T06:29:54;21.87;;;10.63;;
5819;SDS011;2936;47.348;9.640;2023-06-22T06:32:21;16.10;;;10.97;;
5819;SDS011;2936;47.348;9.640;2023-06-22T06:34:49;17.57;;;10.27;;
5819;SDS011;2936;47.348;9.640;2023-06-22T06:37:16;24.07;;;10.93;;
5819;SDS011;2936;47.348;9.640;2023-06-22T06:39:45;22.20;;;10.67;;
5819;SDS011;2936;47.348;9.640;2023-06-22T06:42:12;18.43;;;9.67;;
5819;SDS011;2936;47.348;9.640;2023-06-22T06:44:40;12.73;;;10.17;;
5819;SDS011;2936;47.348;9.640;2023-06-22T06:47:08;19.00;;;10.00;;
5819;SDS011;2936;47.348;9.640;2023-06-22T06:49:35;20.80;;;10.83;;
5819;SDS011;2936;47.348;9.640;2023-06-22T06:52:03;24.83;;;9.40;;
5819;SDS011;2936;47.348;9.640;2023-06-22T06:54:30;16.13;;;10.03;;
5819;SDS011;2936;47.348;9.640;2023-06-22T06:56:59;17.30;;;11.17;;
5819;SDS011;2936;47.348;9.640;2023-06-22T06:59:28;27.33;;;14.40;;
5819;SDS011;2936;47.348;9.640;2023-06-22T07:01:55;23.50;;;10.27;;
5819;SDS011;2936;47.348;9.640;2023-06-22T07:04:22;19.33;;;10.97;;
5819;SDS011;2936;47.348;9.640;2023-06-22T07:06:50;16.33;;;10.20;;
5819;SDS011;2936;47.348;9.640;2023-06-22T07:09:17;18.77;;;10.73;;
5819;SDS011;2936;47.348;9.640;2023-06-22T07:11:44;28.23;;;10.43;;
5819;SDS011;2936;47.348;9.640;2023-06-22T07:14:13;19.97;;;11.47;;
5819;SDS011;2936;47.348;9.640;2023-06-22T07:16:41;15.47;;;9.83;;
5819;SDS011;2936;47.348;9.640;2023-06-22T07:19:10;14.13;;;8.23;;
5819;SDS011;2936;47.348;9.640;2023-06-22T07:21:38;15.63;;;10.27;;
5819;SDS011;2936;47.348;9.640;2023-06-22T07:24:06;18.60;;;9.13;;
5819;SDS011;2936;47.348;9.640;2023-06-22T07:26:34;20.20;;;9.90;;
5819;SDS011;2936;47.348;9.640;2023-06-22T07:29:01;20.77;;;9.67;;
5819;SDS011;2936;47.348;9.640;2023-06-22T07:31:30;29.53;;;11.37;;
5819;SDS011;2936;47.348;9.640;2023-06-22T07:33:58;24.27;;;10.93;;
5819;SDS011;2936;47.348;9.640;2023-06-22T07:36:26;22.80;;;10.10;;
5819;SDS011;2936;47.348;9.640;2023-06-22T07:38:55;25.77;;;9.70;;
5819;SDS011;2936;47.348;9.640;2023-06-22T07:41:22;16.40;;;9.60;;
5819;SDS011;2936;47.348;9.640;2023-06-22T07:43:49;13.13;;;8.93;;
5819;SDS011;2936;47.348;9.640;2023-06-22T07:46:17;26.30;;;10.90;;
5819;SDS011;2936;47.348;9.640;2023-06-22T07:48:45;16.90;;;9.50;;
5819;SDS011;2936;47.348;9.640;2023-06-22T07:51:13;27.43;;;9.43;;
5819;SDS011;2936;47.348;9.640;2023-06-22T07:53:40;18.63;;;9.90;;
5819;SDS011;2936;47.348;9.640;2023-06-22T07:56:09;27.27;;;10.83;;
5819;SDS011;2936;47.348;9.640;2023-06-22T07:58:36;26.00;;;9.60;;
5819;SDS011;2936;47.348;9.640;2023-06-22T08:01:04;30.20;;;8.97;;
5819;SDS011;2936;47.348;9.640;2023-06-22T08:03:31;20.03;;;9.07;;
5819;SDS011;2936;47.348;9.640;2023-06-22T08:06:00;30.80;;;10.60;;
5819;SDS011;2936;47.348;9.640;2023-06-22T08:08:27;23.20;;;11.70;;
5819;SDS011;2936;47.348;9.640;2023-06-22T08:10:55;27.03;;;9.90;;
5819;SDS011;2936;47.348;9.640;2023-06-22T08:13:22;20.40;;;10.60;;
5819;SDS011;2936;47.348;9.640;2023-06-22T08:15:49;34.70;;;12.03;;
5819;SDS011;2936;47.348;9.640;2023-06-22T08:18:16;22.80;;;11.50;;
5819;SDS011;2936;47.348;9.640;2023-06-22T08:20:44;18.33;;;10.70;;
5819;SDS011;2936;47.348;9.640;2023-06-22T08:23:13;31.77;;;12.37;;
5819;SDS011;2936;47.348;9.640;2023-06-22T08:25:41;19.57;;;10.57;;
5819;SDS011;2936;47.348;9.640;2023-06-22T08:28:08;17.60;;;10.80;;
5819;SDS011;2936;47.348;9.640;2023-06-22T08:30:35;29.17;;;11.83;;
5819;SDS011;2936;47.348;9.640;2023-06-22T08:33:03;31.77;;;11.17;;
5819;SDS011;2936;47.348;9.640;2023-06-22T08:35:30;25.70;;;11.30;;
5819;SDS011;2936;47.348;9.640;2023-06-22T08:37:57;23.00;;;12.30;;
5819;SDS011;2936;47.348;9.640;2023-06-22T08:40:28;25.87;;;11.40;;
5819;SDS011;2936;47.348;9.640;2023-06-22T08:42:55;21.47;;;12.67;;
5819;SDS011;2936;47.348;9.640;2023-06-22T08:45:23;18.17;;;11.37;;
5819;SDS011;2936;47.348;9.640;2023-06-22T08:47:50;26.97;;;11.17;;
5819;SDS011;2936;47.348;9.640;2023-06-22T08:50:17;19.37;;;11.80;;
5819;SDS011;2936;47.348;9.640;2023-06-22T08:52:45;26.57;;;11.67;;
5819;SDS011;2936;47.348;9.640;2023-06-22T08:55:13;20.83;;;12.10;;
5819;SDS011;2936;47.348;9.640;2023-06-22T08:57:42;23.33;;;12.67;;
5819;SDS011;2936;47.348;9.640;2023-06-22T09:00:09;20.80;;;12.57;;
5819;SDS011;2936;47.348;9.640;2023-06-22T09:02:42;20.60;;;12.03;;
5819;SDS011;2936;47.348;9.640;2023-06-22T09:05:09;16.57;;;11.33;;
5819;SDS011;2936;47.348;9.640;2023-06-22T09:07:37;20.10;;;10.90;;
5819;SDS011;2936;47.348;9.640;2023-06-22T09:10:05;21.63;;;10.17;;
5819;SDS011;2936;47.348;9.640;2023-06-22T09:12:32;24.37;;;11.60;;
5819;SDS011;2936;47.348;9.640;2023-06-22T09:15:04;17.07;;;11.20;;
5819;SDS011;2936;47.348;9.640;2023-06-22T09:17:32;20.33;;;11.97;;
5819;SDS011;2936;47.348;9.640;2023-06-22T09:20:02;17.90;;;11.33;;
5819;SDS011;2936;47.348;9.640;2023-06-22T09:22:30;17.93;;;11.60;;
5819;SDS011;2936;47.348;9.640;2023-06-22T09:24:58;24.33;;;11.60;;
5819;SDS011;2936;47.348;9.640;2023-06-22T09:27:26;25.20;;;11.10;;
5819;SDS011;2936;47.348;9.640;2023-06-22T09:29:53;19.70;;;11.90;;
5819;SDS011;2936;47.348;9.640;2023-06-22T09:32:22;23.50;;;11.53;;
5819;SDS011;2936;47.348;9.640;2023-06-22T09:34:49;18.17;;;11.00;;
5819;SDS011;2936;47.348;9.640;2023-06-22T09:37:16;22.73;;;12.10;;
5819;SDS011;2936;47.348;9.640;2023-06-22T09:39:43;23.53;;;11.97;;
5819;SDS011;2936;47.348;9.640;2023-06-22T09:42:11;22.63;;;13.30;;
5819;SDS011;2936;47.348;9.640;2023-06-22T09:44:39;20.10;;;12.80;;
5819;SDS011;2936;47.348;9.640;2023-06-22T09:47:08;28.50;;;12.97;;
5819;SDS011;2936;47.348;9.640;2023-06-22T09:49:36;22.23;;;13.20;;
5819;SDS011;2936;47.348;9.640;2023-06-22T09:52:04;23.40;;;13.70;;
5819;SDS011;2936;47.348;9.640;2023-06-22T09:54:31;29.37;;;13.07;;
5819;SDS011;2936;47.348;9.640;2023-06-22T09:56:59;19.07;;;12.10;;
5819;SDS011;2936;47.348;9.640;2023-06-22T09:59:26;19.17;;;11.97;;
5819;SDS011;2936;47.348;9.640;2023-06-22T10:01:53;24.83;;;11.33;;
5819;SDS011;2936;47.348;9.640;2023-06-22T10:04:20;20.00;;;12.87;;
5819;SDS011;2936;47.348;9.640;2023-06-22T10:06:51;24.90;;;13.80;;
5819;SDS011;2936;47.348;9.640;2023-06-22T10:09:18;21.33;;;13.73;;
5819;SDS011;2936;47.348;9.640;2023-06-22T10:11:46;25.57;;;12.77;;
5819;SDS011;2936;47.348;9.640;2023-06-22T10:14:13;27.20;;;14.00;;
5819;SDS011;2936;47.348;9.640;2023-06-22T10:16:41;23.03;;;13.10;;
5819;SDS011;2936;47.348;9.640;2023-06-22T10:19:08;26.63;;;12.77;;
5819;SDS011;2936;47.348;9.640;2023-06-22T10:21:36;26.90;;;13.87;;
5819;SDS011;2936;47.348;9.640;2023-06-22T10:24:05;21.10;;;12.33;;
5819;SDS011;2936;47.348;9.640;2023-06-22T10:26:32;22.33;;;11.60;;
5819;SDS011;2936;47.348;9.640;2023-06-22T10:29:00;20.53;;;12.07;;
5819;SDS011;2936;47.348;9.640;2023-06-22T10:31:27;23.13;;;10.73;;
5819;SDS011;2936;47.348;9.640;2023-06-22T10:33:54;22.10;;;11.50;;
5819;SDS011;2936;47.348;9.640;2023-06-22T10:36:22;27.47;;;13.30;;
5819;SDS011;2936;47.348;9.640;2023-06-22T10:38:49;20.23;;;10.50;;
5819;SDS011;2936;47.348;9.640;2023-06-22T10:41:19;27.43;;;11.70;;
5819;SDS011;2936;47.348;9.640;2023-06-22T10:43:47;27.00;;;11.53;;
5819;SDS011;2936;47.348;9.640;2023-06-22T10:46:14;23.10;;;11.30;;
5819;SDS011;2936;47.348;9.640;2023-06-22T10:48:41;17.37;;;10.30;;
5819;SDS011;2936;47.348;9.640;2023-06-22T10:51:09;19.07;;;10.50;;
5819;SDS011;2936;47.348;9.640;2023-06-22T10:53:36;19.30;;;9.53;;
5819;SDS011;2936;47.348;9.640;2023-06-22T10:56:03;34.33;;;10.93;;
5819;SDS011;2936;47.348;9.640;2023-06-22T10:58:32;22.47;;;11.17;;
5819;SDS011;2936;47.348;9.640;2023-06-22T11:00:59;18.13;;;10.43;;
5819;SDS011;2936;47.348;9.640;2023-06-22T11:03:28;22.90;;;10.00;;
5819;SDS011;2936;47.348;9.640;2023-06-22T11:05:55;20.70;;;10.17;;
5819;SDS011;2936;47.348;9.640;2023-06-22T11:08:22;22.57;;;11.23;;
5819;SDS011;2936;47.348;9.640;2023-06-22T11:10:50;20.37;;;9.90;;
5819;SDS011;2936;47.348;9.640;2023-06-22T11:13:18;21.10;;;9.90;;
5819;SDS011;2936;47.348;9.640;2023-06-22T11:15:46;19.53;;;10.27;;
5819;SDS011;2936;47.348;9.640;2023-06-22T11:18:14;23.30;;;10.67;;
5819;SDS011;2936;47.348;9.640;2023-06-22T11:20:41;22.60;;;11.40;;
5819;SDS011;2936;47.348;9.640;2023-06-22T11:23:09;19.83;;;11.63;;
5819;SDS011;2936;47.348;9.640;2023-06-22T11:25:37;26.70;;;12.53;;
5819;SDS011;2936;47.348;9.640;2023-06-22T11:28:06;18.77;;;13.13;;
5819;SDS011;2936;47.348;9.640;2023-06-22T11:30:34;25.33;;;12.20;;
5819;SDS011;2936;47.348;9.640;2023-06-22T11:33:02;22.00;;;11.90;;
5819;SDS011;2936;47.348;9.640;2023-06-22T11:35:30;25.23;;;12.00;;
5819;SDS011;2936;47.348;9.640;2023-06-22T11:37:57;21.67;;;11.57;;
5819;SDS011;2936;47.348;9.640;2023-06-22T11:40:24;26.87;;;12.37;;
5819;SDS011;2936;47.348;9.640;2023-06-22T11:42:51;26.73;;;11.97;;
5819;SDS011;2936;47.348;9.640;2023-06-22T11:45:19;21.30;;;10.37;;
5819;SDS011;2936;47.348;9.640;2023-06-22T11:47:46;24.03;;;11.40;;
5819;SDS011;2936;47.348;9.640;2023-06-22T11:50:15;20.80;;;11.10;;
5819;SDS011;2936;47.348;9.640;2023-06-22T11:52:42;26.13;;;11.77;;
5819;SDS011;2936;47.348;9.640;2023-06-22T11:55:09;15.87;;;10.77;;
5819;SDS011;2936;47.348;9.640;2023-06-22T11:57:37;27.53;;;12.13;;
5819;SDS011;2936;47.348;9.640;2023-06-22T12:00:05;22.20;;;11.90;;
5819;SDS011;2936;47.348;9.640;2023-06-22T12:02:40;22.03;;;11.47;;
5819;SDS011;2936;47.348;9.640;2023-06-22T12:05:08;19.30;;;10.43;;
5819;SDS011;2936;47.348;9.640;2023-06-22T12:07:37;16.13;;;10.00;;
5819;SDS011;2936;47.348;9.640;2023-06-22T12:10:05;19.23;;;10.07;;
5819;SDS011;2936;47.348;9.640;2023-06-22T12:12:32;22.80;;;10.57;;
5819;SDS011;2936;47.348;9.640;2023-06-22T12:14:59;27.80;;;11.20;;
5819;SDS011;2936;47.348;9.640;2023-06-22T12:17:28;24.20;;;10.30;;
5819;SDS011;2936;47.348;9.640;2023-06-22T12:19:56;16.40;;;10.20;;
5819;SDS011;2936;47.348;9.640;2023-06-22T12:22:23;21.50;;;10.67;;
5819;SDS011;2936;47.348;9.640;2023-06-22T12:24:52;27.10;;;9.90;;
5819;SDS011;2936;47.348;9.640;2023-06-22T12:27:19;21.90;;;10.17;;
5819;SDS011;2936;47.348;9.640;2023-06-22T12:29:46;27.40;;;11.07;;
5819;SDS011;2936;47.348;9.640;2023-06-22T12:32:14;33.30;;;11.00;;
5819;SDS011;2936;47.348;9.640;2023-06-22T12:34:42;23.73;;;12.80;;
5819;SDS011;2936;47.348;9.640;2023-06-22T12:37:09;28.23;;;10.37;;
5819;SDS011;2936;47.348;9.640;2023-06-22T12:39:36;20.13;;;10.17;;
5819;SDS011;2936;47.348;9.640;2023-06-22T12:42:05;18.50;;;10.37;;
5819;SDS011;2936;47.348;9.640;2023-06-22T12:44:33;28.80;;;10.80;;
5819;SDS011;2936;47.348;9.640;2023-06-22T12:47:01;19.40;;;9.37;;
5819;SDS011;2936;47.348;9.640;2023-06-22T12:49:28;26.40;;;11.00;;
5819;SDS011;2936;47.348;9.640;2023-06-22T12:51:55;20.03;;;10.60;;
5819;SDS011;2936;47.348;9.640;2023-06-22T12:54:23;19.80;;;9.13;;
5819;SDS011;2936;47.348;9.640;2023-06-22T12:56:50;17.73;;;10.47;;
5819;SDS011;2936;47.348;9.640;2023-06-22T12:59:19;30.33;;;12.70;;
5819;SDS011;2936;47.348;9.640;2023-06-22T13:01:46;21.77;;;12.57;;
5819;SDS011;2936;47.348;9.640;2023-06-22T13:04:13;22.93;;;12.07;;
5819;SDS011;2936;47.348;9.640;2023-06-22T13:06:40;22.00;;;10.10;;
5819;SDS011;2936;47.348;9.640;2023-06-22T13:09:09;27.33;;;10.37;;
5819;SDS011;2936;47.348;9.640;2023-06-22T13:11:37;23.20;;;11.10;;
5819;SDS011;2936;47.348;9.640;2023-06-22T13:14:04;33.23;;;10.80;;
5819;SDS011;2936;47.348;9.640;2023-06-22T13:16:33;25.93;;;8.77;;
5819;SDS011;2936;47.348;9.640;2023-06-22T13:19:00;26.60;;;9.50;;
5819;SDS011;2936;47.348;9.640;2023-06-22T13:21:27;25.73;;;9.43;;
5819;SDS011;2936;47.348;9.640;2023-06-22T13:23:54;19.83;;;9.20;;
5819;SDS011;2936;47.348;9.640;2023-06-22T13:26:22;14.60;;;8.50;;
5819;SDS011;2936;47.348;9.640;2023-06-22T13:28:49;22.90;;;8.70;;
5819;SDS011;2936;47.348;9.640;2023-06-22T13:31:16;21.67;;;7.70;;
5819;SDS011;2936;47.348;9.640;2023-06-22T13:33:45;17.43;;;8.63;;
5819;SDS011;2936;47.348;9.640;2023-06-22T13:36:14;30.50;;;9.30;;
5819;SDS011;2936;47.348;9.640;2023-06-22T13:38:42;18.83;;;9.00;;
5819;SDS011;2936;47.348;9.640;2023-06-22T13:41:09;24.13;;;9.00;;
5819;SDS011;2936;47.348;9.640;2023-06-22T13:43:37;23.83;;;8.13;;
5819;SDS011;2936;47.348;9.640;2023-06-22T13:46:04;20.07;;;7.83;;
5819;SDS011;2936;47.348;9.640;2023-06-22T13:48:31;16.27;;;7.90;;
5819;SDS011;2936;47.348;9.640;2023-06-22T13:51:00;31.20;;;8.10;;
5819;SDS011;2936;47.348;9.640;2023-06-22T13:53:27;20.13;;;8.00;;
5819;SDS011;2936;47.348;9.640;2023-06-22T13:55:55;23.60;;;7.93;;
5819;SDS011;2936;47.348;9.640;2023-06-22T13:58:22;15.47;;;7.20;;
5819;SDS011;2936;47.348;9.640;2023-06-22T14:00:50;21.93;;;7.47;;
5819;SDS011;2936;47.348;9.640;2023-06-22T14:03:17;14.63;;;8.20;;
5819;SDS011;2936;47.348;9.640;2023-06-22T14:05:44;18.90;;;7.27;;
5819;SDS011;2936;47.348;9.640;2023-06-22T14:08:13;17.90;;;7.40;;
5819;SDS011;2936;47.348;9.640;2023-06-22T14:10:40;19.80;;;7.20;;
5819;SDS011;2936;47.348;9.640;2023-06-22T14:13:07;13.50;;;7.50;;
5819;SDS011;2936;47.348;9.640;2023-06-22T14:15:35;18.13;;;7.80;;
5819;SDS011;2936;47.348;9.640;2023-06-22T14:18:02;14.20;;;7.00;;
5819;SDS011;2936;47.348;9.640;2023-06-22T14:20:29;24.63;;;8.40;;
5819;SDS011;2936;47.348;9.640;2023-06-22T14:22:57;18.43;;;7.57;;
5819;SDS011;2936;47.348;9.640;2023-06-22T14:25:25;12.40;;;7.50;;
5819;SDS011;2936;47.348;9.640;2023-06-22T14:27:53;23.27;;;7.50;;
5819;SDS011;2936;47.348;9.640;2023-06-22T14:30:20;18.93;;;7.73;;
5819;SDS011;2936;47.348;9.640;2023-06-22T14:32:47;16.20;;;7.90;;
5819;SDS011;2936;47.348;9.640;2023-06-22T14:35:15;16.40;;;8.40;;
5819;SDS011;2936;47.348;9.640;2023-06-22T14:37:42;20.47;;;8.17;;
5819;SDS011;2936;47.348;9.640;2023-06-22T14:40:10;21.83;;;7.70;;
5819;SDS011;2936;47.348;9.640;2023-06-22T14:42:39;23.97;;;7.47;;
5819;SDS011;2936;47.348;9.640;2023-06-22T14:45:06;17.60;;;7.97;;
5819;SDS011;2936;47.348;9.640;2023-06-22T14:47:34;18.67;;;6.77;;
5819;SDS011;2936;47.348;9.640;2023-06-22T14:50:01;17.90;;;7.63;;
5819;SDS011;2936;47.348;9.640;2023-06-22T14:52:28;9.83;;;7.63;;
5819;SDS011;2936;47.348;9.640;2023-06-22T14:54:56;17.77;;;7.60;;
5819;SDS011;2936;47.348;9.640;2023-06-22T14:57:24;24.50;;;7.80;;
5819;SDS011;2936;47.348;9.640;2023-06-22T14:59:54;25.30;;;8.03;;
5819;SDS011;2936;47.348;9.640;2023-06-22T15:02:22;21.73;;;8.70;;